Latest Weather Observations for Toowoomba

IDQ60801

Issued at 3:05 pm EST Saturday 26 July 2014 (issued every 30 minutes, with the page automatically refreshed every 10 minutes)

About weather observations | Map of weather stations | Latest weather observations for QLD | Other Formats
Station Details ID: 041529 Name: TOOWOOMBA AIRPORT Lat: -27.54 Lon: 151.91 Height: 640.9 m
Data from the previous 72 hours. | See also: Recent months at Toowoomba
Date/Time
EST
Temp
°C
App
Temp
°C
Dew
Point
Rel
Hum
%
Delta-T
°C
Wind Press
QNH
hPa
Press
MSL
hPa
Rain
since 9 am
mm
Dir
 
Spd
km/h
Gust
km/h
Spd
kts
Gust
kts
26/03:00pm 14.7 12.7 12.7 88 1.1 W 15 19 8 10 1026.1 1025.8 6.4
26/02:30pm 14.4 12.1 13.1 92 0.7 SW 17 22 9 12 1026.0 - 6.4
26/02:20pm 14.3 12.2 13.5 95 0.5 SW 17 20 9 11 1026.3 - 6.4
26/02:06pm 13.9 11.3 13.1 95 0.5 SW 19 22 10 12 1026.5 - 6.0
26/02:04pm 13.9 11.3 13.1 95 0.5 SW 19 22 10 12 1026.5 - 6.0
26/02:00pm 14.1 11.8 13.1 94 0.6 SW 17 24 9 13 1026.5 - 5.8
26/01:30pm 14.6 11.0 11.9 84 1.5 W 22 35 12 19 1026.4 - 2.2
26/01:28pm 14.9 11.1 11.3 79 2.0 W 22 35 12 19 1026.4 - 1.4
26/01:00pm 18.2 14.5 10.1 59 4.5 W 20 32 11 17 1026.2 - 0.0
26/12:30pm 18.5 15.6 11.1 62 4.1 NNW 17 22 9 12 1026.7 - 0.0
26/12:00pm 18.3 15.9 11.4 64 3.9 NNW 15 22 8 12 1027.4 1027.1 0.0
26/11:30am 17.5 14.8 11.8 69 3.2 N 17 22 9 12 1027.8 - 0.0
26/11:00am 17.1 14.4 11.8 71 3.0 N 17 24 9 13 1028.2 - 0.0
26/10:30am 15.9 12.9 11.9 77 2.2 N 19 24 10 13 1028.7 - 0.0
26/10:00am 15.4 12.5 12.2 81 1.8 N 19 24 10 13 1028.8 - 0.0
26/09:30am 14.7 12.9 12.0 84 1.5 N 13 19 7 10 1028.9 - 0.0
26/09:00am 14.2 12.3 11.7 85 1.4 N 13 17 7 9 1029.2 1028.9 0.0
26/08:30am 13.8 12.5 11.1 84 1.5 NNW 9 13 5 7 1029.2 - 0.0
26/08:00am 13.8 12.1 11.1 84 1.5 N 11 15 6 8 1028.8 - 0.0
26/07:30am 12.7 11.1 11.6 93 0.6 NE 11 13 6 7 1028.5 - 0.0
26/07:00am 11.6 9.9 10.0 90 0.8 ENE 9 9 5 5 1028.3 - 0.0
26/06:30am 12.2 9.9 10.4 89 1.0 NNE 13 15 7 8 1028.1 - 0.0
26/06:00am 12.5 10.6 10.6 88 1.0 NNE 11 15 6 8 1027.9 1027.6 0.0
26/05:30am 12.0 10.3 9.9 87 1.1 NE 9 13 5 7 1027.6 - 0.0
26/05:00am 12.9 10.9 10.3 84 1.4 NNE 11 17 6 9 1027.2 - 0.0
26/04:30am 12.6 9.8 10.1 85 1.3 NE 15 19 8 10 1027.0 - 0.0
26/04:00am 12.0 9.4 10.7 92 0.7 NE 15 19 8 10 1027.3 - 0.0
26/03:30am 12.0 9.5 10.9 93 0.6 ENE 15 20 8 11 1027.0 - 0.0
26/03:00am 12.3 9.7 10.7 90 0.9 NE 15 20 8 11 1027.1 1026.8 0.0
26/02:30am 12.4 9.9 11.1 92 0.7 NE 15 22 8 12 1027.3 - 0.0
26/02:00am 12.0 9.9 11.1 94 0.5 NE 13 19 7 10 1027.7 - 0.0
26/01:30am 12.2 9.8 11.3 94 0.5 ENE 15 20 8 11 1027.7 - 0.0
26/01:00am 12.3 9.4 11.0 92 0.7 ENE 17 20 9 11 1027.7 - 0.0
26/12:30am 12.4 9.5 11.1 92 0.7 ENE 17 20 9 11 1027.7 - 0.0
26/12:00am 12.5 9.8 11.6 94 0.5 ENE 17 20 9 11 1028.0 1027.7 0.0
 
Date/Time
EST
Temp
°C
App
Temp
°C
Dew
Point
Rel
Hum
%
Delta-T
°C
Wind Press
QNH
hPa
Press
MSL
hPa
Rain
since 9 am
mm
Dir
 
Spd
km/h
Gust
km/h
Spd
kts
Gust
kts
25/11:30pm 12.1 9.6 11.2 94 0.5 E 15 19 8 10 1028.1 - 0.0
25/11:00pm 12.1 9.1 10.8 92 0.7 E 17 20 9 11 1028.2 - 0.0
25/10:30pm 12.5 9.6 10.9 90 0.9 E 17 20 9 11 1028.5 - 0.0
25/10:00pm 12.7 10.5 10.8 88 1.0 ENE 13 17 7 9 1028.4 - 0.0
25/09:30pm 12.9 10.1 10.1 83 1.5 E 15 19 8 10 1028.4 - 0.0
25/09:00pm 13.3 9.5 9.0 75 2.2 E 19 24 10 13 1028.3 1028.1 0.0
25/08:30pm 13.7 10.1 8.5 71 2.7 E 17 20 9 11 1028.3 - 0.0
25/08:00pm 14.1 10.9 8.5 69 2.9 E 15 19 8 10 1027.8 - 0.0
25/07:30pm 14.5 10.9 8.2 66 3.3 E 17 19 9 10 1027.6 - 0.0
25/07:00pm 14.1 11.1 7.9 66 3.2 E 13 17 7 9 1027.4 - 0.0
25/06:30pm 14.7 11.8 8.0 64 3.5 E 13 17 7 9 1026.8 - 0.0
25/06:00pm 15.1 12.0 7.2 59 4.0 E 13 17 7 9 1026.6 1026.3 0.0
25/05:30pm 15.9 12.8 7.4 57 4.4 E 13 17 7 9 1026.2 - 0.0
25/05:00pm 17.3 13.5 7.6 53 5.1 E 17 20 9 11 1026.0 - 0.0
25/04:30pm 18.1 14.4 8.1 52 5.3 E 17 22 9 12 1025.6 - 0.0
25/04:00pm 18.6 14.7 8.6 52 5.4 E 19 24 10 13 1025.4 - 0.0
25/03:30pm 18.9 15.4 8.8 52 5.4 ENE 17 24 9 13 1025.4 - 0.0
25/03:00pm 19.1 16.0 9.0 52 5.4 E 15 20 8 11 1025.4 1025.0 0.0
25/02:30pm 19.0 15.6 9.2 53 5.3 ENE 17 24 9 13 1025.4 - 0.0
25/02:00pm 19.2 15.9 9.4 53 5.3 E 17 28 9 15 1025.6 - 0.0
25/01:30pm 19.2 16.3 9.7 54 5.2 E 15 20 8 11 1025.8 - 0.0
25/01:00pm 18.7 16.2 9.8 56 4.9 ENE 13 20 7 11 1026.2 - 0.0
25/12:30pm 18.5 16.5 10.3 59 4.5 ENE 11 19 6 10 1026.6 - 0.0
25/12:00pm 17.9 16.3 10.3 61 4.2 ENE 9 15 5 8 1027.3 1027.0 0.0
25/11:30am 17.3 15.1 10.7 65 3.6 E 13 17 7 9 1027.7 - 0.0
25/11:00am 16.6 14.8 10.9 69 3.2 ENE 11 17 6 9 1028.0 - 0.0
25/10:30am 15.3 13.6 11.1 76 2.3 ENE 11 15 6 8 1028.3 - 0.0
25/10:00am 14.4 11.9 11.2 81 1.8 ENE 15 19 8 10 1028.4 - 0.0
25/09:30am 13.3 10.5 11.2 87 1.1 E 17 22 9 12 1028.4 - 0.0
25/09:15am 12.8 9.9 10.9 88 1.0 ENE 17 22 9 12 1028.2 - 0.0
25/09:02am 12.9 10.3 12.0 94 0.5 E 17 22 9 12 1028.1 - 0.0
25/09:00am 12.6 9.6 11.8 95 0.4 E 19 22 10 12 1028.0 1027.7 0.0
25/08:30am 12.2 8.5 11.6 96 0.3 E 22 24 12 13 1027.8 - 0.0
25/08:07am 11.6 8.4 11.4 99 0.1 E 19 22 10 12 1027.7 - 0.0
25/08:00am 11.5 8.1 11.3 99 0.1 E 20 24 11 13 1027.6 - 0.0
25/07:50am 11.2 7.9 11.0 99 0.1 E 19 22 10 12 1027.6 - 0.0
25/07:30am 10.7 8.0 10.5 99 0.1 E 15 19 8 10 1027.4 - 0.0
25/07:27am 10.5 7.8 10.3 99 0.1 E 15 19 8 10 1027.4 - 0.0
25/07:23am 10.6 7.9 10.4 99 0.1 E 15 19 8 10 1027.3 - 0.0
25/07:06am 10.4 7.3 10.2 99 0.1 E 17 20 9 11 1027.2 - 0.0
25/07:00am 10.3 7.1 10.1 99 0.1 E 17 20 9 11 1027.1 - 0.0
25/06:30am 9.4 6.4 9.3 99 0.1 E 15 17 8 9 1026.8 - 0.0
25/06:00am 9.4 6.0 9.3 99 0.1 E 17 19 9 10 1026.7 1026.4 0.0
25/05:30am 9.7 6.4 9.6 99 0.1 E 17 20 9 11 1026.2 - 0.0
25/05:09am 9.9 6.7 9.8 99 0.1 E 17 17 9 9 1026.1 - 0.0
25/05:00am 9.9 6.7 9.8 99 0.1 E 17 17 9 9 1026.1 - 0.0
25/04:53am 10.0 7.1 9.7 98 0.2 E 15 17 8 9 1026.0 - 0.0
25/04:30am 10.1 7.2 9.8 98 0.2 E 15 17 8 9 1026.0 - 0.0
25/04:20am 10.1 6.9 9.8 98 0.2 E 17 17 9 9 1025.9 - 0.0
25/04:00am 10.2 6.6 9.7 97 0.3 E 19 22 10 12 1025.9 - 0.0
25/03:30am 10.8 7.1 10.3 97 0.3 ENE 20 26 11 14 1025.8 - 0.0
25/03:00am 10.5 7.3 9.9 96 0.3 E 17 20 9 11 1025.7 1025.4 0.0
25/02:30am 10.7 7.1 9.9 95 0.4 E 19 22 10 12 1025.6 - 0.0
25/02:00am 10.9 7.5 10.4 97 0.3 ENE 19 22 10 12 1025.5 - 0.0
25/01:30am 10.6 7.0 10.0 96 0.3 ENE 19 24 10 13 1025.7 - 0.0
25/01:00am 10.7 7.5 9.8 94 0.5 ENE 17 20 9 11 1025.7 - 0.0
25/12:30am 10.4 7.1 9.5 94 0.5 E 17 19 9 10 1025.7 - 0.0
25/12:00am 10.9 7.3 10.0 94 0.5 E 19 22 10 12 1025.8 1025.5 0.0
 
Date/Time
EST
Temp
°C
App
Temp
°C
Dew
Point
Rel
Hum
%
Delta-T
°C
Wind Press
QNH
hPa
Press
MSL
hPa
Rain
since 9 am
mm
Dir
 
Spd
km/h
Gust
km/h
Spd
kts
Gust
kts
24/11:30pm 10.9 7.7 9.8 93 0.6 ENE 17 22 9 12 1025.8 - 0.0
24/11:00pm 10.6 7.3 9.4 92 0.6 E 17 20 9 11 1025.9 - 0.0
24/10:30pm 10.9 7.2 9.5 91 0.7 E 19 22 10 12 1025.9 - 0.0
24/10:00pm 11.1 7.1 9.2 88 1.0 E 20 24 11 13 1026.0 - 0.0
24/09:30pm 11.2 6.8 8.9 86 1.2 E 22 28 12 15 1025.8 - 0.0
24/09:00pm 11.6 7.2 9.0 84 1.3 E 22 26 12 14 1025.6 1025.3 0.0
24/08:30pm 11.8 7.7 8.5 80 1.7 ESE 20 24 11 13 1025.3 - 0.0
24/08:00pm 12.1 8.0 7.8 75 2.2 E 19 24 10 13 1025.0 - 0.0
24/07:30pm 13.1 8.8 7.8 70 2.7 E 20 26 11 14 1024.7 - 0.0
24/07:00pm 13.5 9.0 6.1 61 3.6 E 19 24 10 13 1024.4 - 0.0
24/06:30pm 13.2 8.9 6.8 65 3.2 E 19 20 10 11 1024.1 - 0.0
24/06:00pm 13.6 10.1 7.2 65 3.2 E 15 17 8 9 1023.7 1023.3 0.0
24/05:30pm 14.7 11.2 7.3 61 3.8 E 15 17 8 9 1023.4 - 0.0
24/05:00pm 15.6 11.2 7.4 58 4.2 E 20 24 11 13 1023.1 - 0.0
24/04:30pm 16.4 11.6 7.3 55 4.7 E 22 26 12 14 1022.8 - 0.0
24/04:00pm 17.0 12.7 7.9 55 4.8 E 20 26 11 14 1022.7 - 0.0
24/03:30pm 17.5 13.5 8.1 54 5.0 E 19 26 10 14 1022.6 - 0.0
24/03:00pm 17.6 13.8 7.4 51 5.3 ENE 17 22 9 12 1022.5 1022.1 0.0
24/02:30pm 18.0 13.9 8.0 52 5.3 ESE 19 24 10 13 1022.6 - 0.0
24/02:00pm 17.8 14.3 7.2 50 5.5 ENE 15 22 8 12 1022.8 - 0.0
24/01:30pm 16.9 13.5 7.8 55 4.7 E 15 20 8 11 1022.8 - 0.0
24/01:00pm 16.9 12.7 7.5 54 4.9 E 19 26 10 14 1023.0 - 0.0
24/12:30pm 16.5 12.6 8.7 60 4.1 ENE 19 28 10 15 1023.3 - 0.0
24/12:00pm 16.2 12.7 8.9 62 3.9 ENE 17 24 9 13 1023.9 1023.5 0.0
24/11:30am 15.6 11.6 8.4 62 3.8 ENE 19 26 10 14 1024.5 - 0.0
24/11:00am 15.9 11.7 9.6 66 3.4 ENE 22 33 12 18 1024.6 - 0.0
24/10:30am 15.1 10.5 9.5 69 3.0 E 24 32 13 17 1024.8 - 0.0
24/10:00am 14.0 9.7 9.2 73 2.5 ENE 22 28 12 15 1024.7 - 0.0
24/09:30am 13.1 8.3 9.0 76 2.1 E 24 30 13 16 1024.7 - 0.0
24/09:00am 13.0 8.7 9.3 78 1.9 ENE 22 28 12 15 1024.2 1023.9 0.0
24/08:30am 12.2 7.4 9.0 81 1.7 E 24 30 13 16 1023.8 - 0.0
24/08:00am 11.2 6.4 8.8 85 1.2 E 24 30 13 16 1023.5 - 0.0
24/07:38am 10.6 6.1 8.5 87 1.1 E 22 28 12 15 1023.5 - 0.0
24/07:30am 10.3 5.8 8.4 88 1.0 E 22 26 12 14 1023.4 - 0.0
24/07:00am 9.8 5.6 8.1 89 0.9 E 20 24 11 13 1023.5 - 0.0
24/06:30am 9.6 5.3 8.0 90 0.8 E 20 22 11 12 1023.5 - 0.0
24/06:00am 9.7 5.2 8.6 93 0.6 E 22 26 12 14 1023.0 1022.7 0.0
24/05:30am 9.9 6.1 9.0 94 0.5 E 19 22 10 12 1022.7 - 0.0
24/05:09am 9.6 6.1 8.8 95 0.4 E 17 20 9 11 1022.8 - 0.0
24/05:00am 9.6 5.7 8.5 93 0.6 E 19 24 10 13 1022.6 - 0.0
24/04:30am 9.7 5.6 8.6 93 0.6 E 20 26 11 14 1021.8 - 0.0
24/04:00am 10.1 6.0 8.7 91 0.7 E 20 24 11 13 1022.2 - 0.0
24/03:30am 10.2 5.8 8.8 91 0.7 E 22 28 12 15 1022.5 - 0.0
24/03:00am 10.3 5.5 8.7 90 0.8 E 24 30 13 16 1022.3 1021.9 0.0
24/02:30am 10.4 5.6 8.7 89 0.9 E 24 30 13 16 1022.6 - 0.0
24/02:00am 10.4 5.5 8.3 87 1.1 E 24 32 13 17 1022.9 - 0.0
24/01:30am 10.5 5.6 8.4 87 1.1 E 24 30 13 16 1023.1 - 0.0
24/01:00am 10.5 5.6 8.6 88 1.0 E 24 30 13 16 1023.0 - 0.0
24/12:30am 10.6 5.8 8.9 89 0.9 E 24 28 13 15 1023.2 - 0.0
24/12:00am 10.7 5.9 8.8 88 1.0 E 24 32 13 17 1023.4 1023.1 0.0
 
Date/Time
EST
Temp
°C
App
Temp
°C
Dew
Point
Rel
Hum
%
Delta-T
°C
Wind Press
QNH
hPa
Press
MSL
hPa
Rain
since 9 am
mm
Dir
 
Spd
km/h
Gust
km/h
Spd
kts
Gust
kts
23/11:30pm 10.7 5.9 8.8 88 1.0 E 24 32 13 17 1023.4 - 0.0
23/11:00pm 10.8 5.5 8.4 85 1.2 E 26 37 14 20 1023.4 - 0.0
23/10:30pm 10.9 5.7 8.8 87 1.1 E 26 33 14 18 1023.5 - 0.0
23/10:00pm 11.0 5.7 8.6 85 1.2 E 26 33 14 18 1023.5 - 0.0
23/09:30pm 10.8 5.8 7.9 82 1.5 E 24 30 13 16 1023.4 - 0.0
23/09:00pm 10.6 6.1 6.9 78 1.8 E 20 26 11 14 1023.4 1023.1 0.0
23/08:30pm 11.4 6.5 6.7 73 2.3 E 22 28 12 15 1023.3 - 0.0
23/08:00pm 12.1 6.3 6.2 67 2.9 E 26 33 14 18 1022.9 - 0.0
23/07:30pm 12.9 8.7 5.6 61 3.5 E 17 20 9 11 1022.5 - 0.0
23/07:00pm 12.4 8.1 5.1 61 3.5 E 17 20 9 11 1022.6 - 0.0
23/06:30pm 12.8 8.9 5.2 60 3.7 E 15 19 8 10 1022.2 - 0.0
23/06:00pm 13.2 8.9 5.4 59 3.8 E 17 24 9 13 1022.2 1021.8 0.0
23/05:30pm 13.7 9.4 5.1 56 4.2 E 17 20 9 11 1022.0 - 0.0
23/05:00pm 14.3 9.5 4.9 53 4.5 E 19 22 10 12 1021.8 - 0.0
23/04:30pm 15.3 10.9 4.9 50 5.1 E 17 20 9 11 1021.5 - 0.0
23/04:00pm 15.8 11.4 4.5 47 5.5 E 17 20 9 11 1021.5 - 0.0
23/03:30pm 16.5 12.8 4.5 45 5.8 E 13 19 7 10 1021.4 - 0.0

Other Formats:

Comma delimited format used in spreadsheet applications
http://www.bom.gov.au/fwo/IDQ60801/IDQ60801.95551.axf

JavaScript Object Notation format (JSON) in row-major order
http://www.bom.gov.au/fwo/IDQ60801/IDQ60801.95551.json